Time;durP1;ratioP1;P1;durP2;ratioP2;P2;SDS_P1;SDS_P2;PMS_P1;PMS_P2;Temp;Humidity;BMP_temperature;BMP_pressure;BME280_temperature;BME280_humidity;BME280_pressure;Samples;Min_cycle;Max_cycle;Signal;HPM_P1;HPM_P2
2023/04/05 00:02:00;;;;;;;0.40;0.40;;;;;;;;;;5091822;28;20264;-77
2023/04/05 00:04:27;;;;;;;0.33;0.33;;;;;;;;;;5096006;28;20274;-75
2023/04/05 00:06:56;;;;;;;0.30;0.30;;;;;;;;;;5101205;28;20208;-76
2023/04/05 00:09:23;;;;;;;0.40;0.40;;;;;;;;;;5096552;28;20255;-76
2023/04/05 00:11:50;;;;;;;0.40;0.40;;;;;;;;;;5110921;28;20200;-76
2023/04/05 00:14:16;;;;;;;0.27;0.27;;;;;;;;;;5108108;28;20196;-76
2023/04/05 00:16:45;;;;;;;0.33;0.33;;;;;;;;;;5091803;28;20606;-76
2023/04/05 00:19:12;;;;;;;0.40;0.40;;;;;;;;;;5109542;28;20629;-76
2023/04/05 00:21:39;;;;;;;0.33;0.33;;;;;;;;;;5100314;28;20283;-76
2023/04/05 00:24:08;;;;;;;0.50;0.50;;;;;;;;;;5109840;28;20790;-75
2023/04/05 00:26:35;;;;;;;0.40;0.40;;;;;;;;;;5099556;28;20269;-76
2023/04/05 00:29:02;;;;;;;0.40;0.40;;;;;;;;;;5104798;28;20736;-77
2023/04/05 00:31:29;;;;;;;0.50;0.50;;;;;;;;;;5104533;28;20264;-76
2023/04/05 00:33:57;;;;;;;0.30;0.30;;;;;;;;;;5091604;28;20596;-76
2023/04/05 00:36:25;;;;;;;0.50;0.50;;;;;;;;;;5104638;28;20252;-76
2023/04/05 00:38:51;;;;;;;0.40;0.40;;;;;;;;;;5091795;28;20575;-76
2023/04/05 00:41:18;;;;;;;0.50;0.50;;;;;;;;;;5104093;28;20204;-77
2023/04/05 00:43:45;;;;;;;0.40;0.40;;;;;;;;;;5097881;28;20639;-76
2023/04/05 00:46:12;;;;;;;0.53;0.53;;;;;;;;;;5097115;28;20583;-77
2023/04/05 00:48:39;;;;;;;0.40;0.40;;;;;;;;;;5098290;28;20200;-76
2023/04/05 00:51:10;;;;;;;0.50;0.50;;;;;;;;;;5097195;28;20204;-76
2023/04/05 00:53:37;;;;;;;0.43;0.43;;;;;;;;;;5103114;28;20196;-77
2023/04/05 00:56:04;;;;;;;7.50;6.80;;;;;;;;;;5106034;28;20236;-77
2023/04/05 00:58:32;;;;;;;3.97;3.57;;;;;;;;;;5102793;28;20744;-76
2023/04/05 01:01:05;;;;;;;1.20;1.10;;;;;;;;;;5090857;28;20299;-76
2023/04/05 01:03:33;;;;;;;1.10;1.10;;;;;;;;;;5101092;28;20258;-76
2023/04/05 01:06:07;;;;;;;0.97;0.97;;;;;;;;;;5107502;28;20196;-76
2023/04/05 01:08:41;;;;;;;0.50;0.50;;;;;;;;;;5102065;28;20235;-76
2023/04/05 01:11:08;;;;;;;0.40;0.40;;;;;;;;;;5092012;28;20204;-76
2023/04/05 01:13:35;;;;;;;1.23;0.60;;;;;;;;;;5091186;28;20204;-76
2023/04/05 01:16:02;;;;;;;0.43;0.43;;;;;;;;;;5109610;28;20226;-76
2023/04/05 01:18:31;;;;;;;0.60;0.60;;;;;;;;;;5099552;28;20200;-76
2023/04/05 01:21:09;;;;;;;0.70;0.70;;;;;;;;;;5109594;28;20268;-76
2023/04/05 01:23:43;;;;;;;0.60;0.60;;;;;;;;;;5096690;28;20223;-77
2023/04/05 01:26:40;;;;;;;0.60;0.60;;;;;;;;;;5090593;28;20204;-76
2023/04/05 01:29:35;;;;;;;0.33;0.33;;;;;;;;;;5110431;28;20260;-76
2023/04/05 01:32:08;;;;;;;0.37;0.37;;;;;;;;;;5110780;28;20222;-75
2023/04/05 01:34:41;;;;;;;0.57;0.57;;;;;;;;;;5110505;28;20210;-77
2023/04/05 01:37:10;;;;;;;0.57;0.57;;;;;;;;;;5091941;28;20203;-76
2023/04/05 01:39:37;;;;;;;0.60;0.60;;;;;;;;;;5103448;28;20231;-77
2023/04/05 01:42:04;;;;;;;0.60;0.60;;;;;;;;;;5097432;28;20203;-76
2023/04/05 01:44:32;;;;;;;0.50;0.50;;;;;;;;;;5098209;28;20219;-76
2023/04/05 01:46:59;;;;;;;0.50;0.50;;;;;;;;;;5090316;28;20670;-76
2023/04/05 01:49:26;;;;;;;0.40;0.40;;;;;;;;;;5090789;28;20204;-77
2023/04/05 01:51:53;;;;;;;0.50;0.50;;;;;;;;;;5095830;28;20200;-76
2023/04/05 01:54:19;;;;;;;0.70;0.70;;;;;;;;;;5113446;28;20203;-76
2023/04/05 01:56:46;;;;;;;0.50;0.50;;;;;;;;;;5094884;28;20196;-76
2023/04/05 01:59:13;;;;;;;0.60;0.60;;;;;;;;;;5107584;28;20207;-76
2023/04/05 02:01:41;;;;;;;0.57;0.57;;;;;;;;;;5100841;28;20196;-76
2023/04/05 02:04:07;;;;;;;0.50;0.50;;;;;;;;;;5114628;28;20223;-76
2023/04/05 02:06:34;;;;;;;0.60;0.60;;;;;;;;;;5101490;28;20188;-76
2023/04/05 02:09:01;;;;;;;0.53;0.53;;;;;;;;;;5114793;28;20215;-77
2023/04/05 02:11:28;;;;;;;0.50;0.50;;;;;;;;;;5094026;28;20214;-76
2023/04/05 02:13:55;;;;;;;0.77;0.77;;;;;;;;;;5107600;28;20267;-76
2023/04/05 02:16:22;;;;;;;0.53;0.53;;;;;;;;;;5093924;28;20269;-76
2023/04/05 02:18:50;;;;;;;0.60;0.60;;;;;;;;;;5094849;28;20719;-76
2023/04/05 02:21:17;;;;;;;0.47;0.47;;;;;;;;;;5106025;28;20578;-76
2023/04/05 02:23:43;;;;;;;0.50;0.50;;;;;;;;;;5108205;28;20700;-76
2023/04/05 02:26:10;;;;;;;0.70;0.70;;;;;;;;;;5114330;28;20195;-76
2023/04/05 02:28:37;;;;;;;1.30;1.20;;;;;;;;;;5112467;28;20260;-77
2023/04/05 02:31:09;;;;;;;0.87;0.87;;;;;;;;;;5102009;28;20615;-76
2023/04/05 02:33:35;;;;;;;0.60;0.60;;;;;;;;;;5111544;28;20716;-76
2023/04/05 02:36:06;;;;;;;0.60;0.60;;;;;;;;;;5093551;28;20204;-76
2023/04/05 02:38:33;;;;;;;0.60;0.60;;;;;;;;;;5096949;28;20248;-75
2023/04/05 02:41:00;;;;;;;0.90;0.90;;;;;;;;;;5103593;28;20205;-76
2023/04/05 02:43:27;;;;;;;0.53;0.53;;;;;;;;;;5097405;28;20644;-75
2023/04/05 02:45:53;;;;;;;0.40;0.40;;;;;;;;;;5113801;28;20274;-76
2023/04/05 02:48:20;;;;;;;0.60;0.60;;;;;;;;;;5109637;28;20200;-76
2023/04/05 02:50:48;;;;;;;0.50;0.50;;;;;;;;;;5093299;28;20264;-76
2023/04/05 02:53:17;;;;;;;0.50;0.50;;;;;;;;;;5093276;28;20208;-77
2023/04/05 02:55:44;;;;;;;0.50;0.50;;;;;;;;;;5093371;28;20262;-76
2023/04/05 02:58:10;;;;;;;0.50;0.50;;;;;;;;;;5093662;28;20200;-77
2023/04/05 03:00:37;;;;;;;0.50;0.50;;;;;;;;;;5093376;28;20262;-77
2023/04/05 03:03:04;;;;;;;0.43;0.43;;;;;;;;;;5112164;28;20211;-76
2023/04/05 03:05:31;;;;;;;0.50;0.50;;;;;;;;;;5113233;28;20199;-76
2023/04/05 03:07:58;;;;;;;0.80;0.80;;;;;;;;;;5113147;28;20215;-77
2023/04/05 03:10:28;;;;;;;0.70;0.70;;;;;;;;;;5113644;28;20223;-76
2023/04/05 03:12:54;;;;;;;0.70;0.70;;;;;;;;;;5098535;28;20226;-77
2023/04/05 03:15:21;;;;;;;1.33;1.00;;;;;;;;;;5113276;28;20210;-77
2023/04/05 03:17:48;;;;;;;0.87;0.87;;;;;;;;;;5093778;28;20196;-77
2023/04/05 03:20:15;;;;;;;1.10;1.10;;;;;;;;;;5092969;28;20200;-77
2023/04/05 03:22:41;;;;;;;0.60;0.60;;;;;;;;;;5112512;28;20631;-76
2023/04/05 03:25:08;;;;;;;0.80;0.80;;;;;;;;;;5113147;28;20223;-76
2023/04/05 03:27:37;;;;;;;0.60;0.60;;;;;;;;;;5092715;28;20200;-77
2023/04/05 03:30:04;;;;;;;0.50;0.50;;;;;;;;;;5092697;28;20208;-77
2023/04/05 03:32:31;;;;;;;0.30;0.30;;;;;;;;;;5099611;28;20219;-76
2023/04/05 03:34:58;;;;;;;0.60;0.60;;;;;;;;;;5099162;28;20200;-77
2023/04/05 03:37:25;;;;;;;0.50;0.50;;;;;;;;;;5099425;28;20195;-77
2023/04/05 03:39:51;;;;;;;0.50;0.50;;;;;;;;;;5098588;28;20265;-77
2023/04/05 03:42:19;;;;;;;0.60;0.60;;;;;;;;;;5105382;28;20269;-77
2023/04/05 03:44:48;;;;;;;0.80;0.80;;;;;;;;;;5103919;28;20237;-76
2023/04/05 03:47:15;;;;;;;9.57;6.17;;;;;;;;;;5112089;28;20203;-76
2023/04/05 03:49:42;;;;;;;5.33;4.20;;;;;;;;;;5111682;28;20205;-78
2023/04/05 03:52:09;;;;;;;2.63;2.43;;;;;;;;;;5112078;28;20590;-81
2023/04/05 03:54:36;;;;;;;2.13;2.03;;;;;;;;;;5098537;28;20200;-78
2023/04/05 03:57:03;;;;;;;1.70;1.60;;;;;;;;;;5105019;28;20217;-78
2023/04/05 03:59:30;;;;;;;1.10;1.03;;;;;;;;;;5106652;28;20649;-78
2023/04/05 04:01:58;;;;;;;0.87;0.87;;;;;;;;;;5104752;28;20200;-78
2023/04/05 04:04:28;;;;;;;5.53;0.97;;;;;;;;;;5092256;28;20304;-79
2023/04/05 04:06:56;;;;;;;0.83;0.83;;;;;;;;;;5099930;28;20318;-79
2023/04/05 04:09:22;;;;;;;0.77;0.77;;;;;;;;;;5110055;28;20284;-79
2023/04/05 04:11:49;;;;;;;0.60;0.60;;;;;;;;;;5102383;28;20252;-78
2023/04/05 04:14:16;;;;;;;0.50;0.50;;;;;;;;;;5098532;28;20290;-79
2023/04/05 04:16:43;;;;;;;0.60;0.60;;;;;;;;;;5111117;28;20233;-79
2023/04/05 04:19:11;;;;;;;0.57;0.57;;;;;;;;;;5111723;28;20643;-83
2023/04/05 04:21:38;;;;;;;0.50;0.50;;;;;;;;;;5112474;28;20735;-79
2023/04/05 04:24:05;;;;;;;0.80;0.80;;;;;;;;;;5107333;28;20239;-79
2023/04/05 04:26:36;;;;;;;0.80;0.80;;;;;;;;;;5091223;28;20215;-78
2023/04/05 04:29:05;;;;;;;0.73;0.73;;;;;;;;;;5110913;28;20298;-78
2023/04/05 04:31:32;;;;;;;0.63;0.63;;;;;;;;;;5111600;28;20200;-78
2023/04/05 04:34:01;;;;;;;0.50;0.50;;;;;;;;;;5111897;28;20264;-78
2023/04/05 04:36:35;;;;;;;0.73;0.73;;;;;;;;;;5098608;28;20199;-78
2023/04/05 04:39:04;;;;;;;2.00;1.70;;;;;;;;;;5092320;28;20200;-78
2023/04/05 04:41:32;;;;;;;0.73;0.73;;;;;;;;;;5105160;28;20275;-78
2023/04/05 04:44:01;;;;;;;0.80;0.80;;;;;;;;;;5100190;28;20292;-78
2023/04/05 04:46:29;;;;;;;1.53;1.00;;;;;;;;;;5108982;28;20755;-78
2023/04/05 04:48:57;;;;;;;0.87;0.87;;;;;;;;;;5101309;28;20208;-78
2023/04/05 04:51:23;;;;;;;0.80;0.80;;;;;;;;;;5111223;28;20290;-78
2023/04/05 04:53:51;;;;;;;0.60;0.60;;;;;;;;;;5101941;28;20698;-78
2023/04/05 04:56:18;;;;;;;1.10;1.10;;;;;;;;;;5108929;28;20196;-78
2023/04/05 04:58:45;;;;;;;1.33;1.10;;;;;;;;;;5101087;28;20204;-78
2023/04/05 05:01:12;;;;;;;1.40;1.30;;;;;;;;;;5104801;28;20233;-78
2023/04/05 05:03:38;;;;;;;1.30;1.20;;;;;;;;;;5101962;28;20214;-79
2023/04/05 05:06:06;;;;;;;1.03;1.00;;;;;;;;;;5107710;28;20204;-78
2023/04/05 05:08:33;;;;;;;40.47;13.53;;;;;;;;;;5102241;28;20235;-78
2023/04/05 05:11:01;;;;;;;18.80;8.73;;;;;;;;;;5110227;28;20207;-78
2023/04/05 05:13:27;;;;;;;4.47;3.27;;;;;;;;;;5111741;28;20207;-78
2023/04/05 05:15:55;;;;;;;2.00;1.80;;;;;;;;;;5097832;28;20203;-78
2023/04/05 05:18:24;;;;;;;2.20;1.80;;;;;;;;;;5100500;28;20231;-78
2023/04/05 05:20:52;;;;;;;3.53;1.23;;;;;;;;;;5091266;28;20622;-78
2023/04/05 05:23:19;;;;;;;0.87;0.87;;;;;;;;;;5090974;28;20283;-78
2023/04/05 05:25:46;;;;;;;34.17;19.07;;;;;;;;;;5091347;28;20239;-78
2023/04/05 05:28:15;;;;;;;10.27;6.90;;;;;;;;;;5102228;28;20593;-79
2023/04/05 05:30:42;;;;;;;3.57;3.20;;;;;;;;;;5111123;28;20211;-79
2023/04/05 05:33:08;;;;;;;2.97;2.70;;;;;;;;;;5099380;28;20266;-78
2023/04/05 05:35:36;;;;;;;8.80;5.23;;;;;;;;;;5104739;28;20200;-78
2023/04/05 05:38:03;;;;;;;3.53;3.23;;;;;;;;;;5103614;28;20291;-78
2023/04/05 05:40:30;;;;;;;9.60;6.47;;;;;;;;;;5105239;28;20825;-79
2023/04/05 05:42:57;;;;;;;4.50;2.40;;;;;;;;;;5090837;28;20204;-78
2023/04/05 05:45:26;;;;;;;3.10;2.37;;;;;;;;;;5097161;28;20226;-78
2023/04/05 05:47:52;;;;;;;2.63;2.43;;;;;;;;;;5097741;28;20691;-78
2023/04/05 05:50:20;;;;;;;4.40;3.13;;;;;;;;;;5097441;28;20200;-79
2023/04/05 05:52:47;;;;;;;14.70;9.53;;;;;;;;;;5097655;28;20258;-79
2023/04/05 05:55:13;;;;;;;4.93;4.30;;;;;;;;;;5110836;28;20669;-79
2023/04/05 05:57:40;;;;;;;5.23;4.43;;;;;;;;;;5110328;28;20739;-82
2023/04/05 06:00:09;;;;;;;1.73;1.63;;;;;;;;;;5098504;28;20746;-78
2023/04/05 06:02:37;;;;;;;1.50;1.40;;;;;;;;;;5097152;28;20639;-78
2023/04/05 06:05:04;;;;;;;0.90;0.90;;;;;;;;;;5110945;28;20743;-78
2023/04/05 06:07:38;;;;;;;1.27;1.17;;;;;;;;;;5097386;28;20212;-78
2023/04/05 06:10:06;;;;;;;1.97;1.43;;;;;;;;;;5111275;28;20313;-78
2023/04/05 06:12:33;;;;;;;1.00;1.00;;;;;;;;;;5107747;28;20675;-78
2023/04/05 06:15:00;;;;;;;0.83;0.83;;;;;;;;;;5100270;28;20607;-78
2023/04/05 06:17:27;;;;;;;9.13;8.03;;;;;;;;;;5094170;28;20652;-78
2023/04/05 06:19:55;;;;;;;9.27;7.60;;;;;;;;;;5100777;28;20690;-78
2023/04/05 06:22:23;;;;;;;4.23;3.77;;;;;;;;;;5107041;28;20291;-78
2023/04/05 06:24:50;;;;;;;1.73;1.63;;;;;;;;;;5101113;28;20238;-78
2023/04/05 06:27:17;;;;;;;1.87;1.70;;;;;;;;;;5105998;28;20204;-78
2023/04/05 06:29:44;;;;;;;2.00;1.23;;;;;;;;;;5101427;28;20207;-78
2023/04/05 06:32:10;;;;;;;2.10;1.90;;;;;;;;;;5109615;28;20204;-85
2023/04/05 06:34:37;;;;;;;1.10;1.10;;;;;;;;;;5110435;28;20210;-78
2023/04/05 06:37:08;;;;;;;0.80;0.80;;;;;;;;;;5097391;28;20208;-78
2023/04/05 06:39:35;;;;;;;1.40;1.30;;;;;;;;;;5110902;28;20647;-78
2023/04/05 06:42:02;;;;;;;1.20;1.20;;;;;;;;;;5113928;28;20641;-78
2023/04/05 06:44:29;;;;;;;0.87;0.87;;;;;;;;;;5114467;28;20223;-78
2023/04/05 06:46:55;;;;;;;2.33;1.20;;;;;;;;;;5108388;28;20229;-78
2023/04/05 06:49:22;;;;;;;1.37;1.37;;;;;;;;;;5106567;28;20578;-78
2023/04/05 06:51:49;;;;;;;1.20;1.20;;;;;;;;;;5107548;28;20242;-78
2023/04/05 06:54:20;;;;;;;1.17;1.10;;;;;;;;;;5107245;28;20199;-78
2023/04/05 06:56:46;;;;;;;1.30;1.20;;;;;;;;;;5100801;28;20207;-78
2023/04/05 06:59:13;;;;;;;1.10;1.07;;;;;;;;;;5113510;28;20192;-79
2023/04/05 07:01:43;;;;;;;1.10;1.10;;;;;;;;;;5100979;28;20644;-78
2023/04/05 07:04:10;;;;;;;1.30;1.20;;;;;;;;;;5113043;28;20214;-78
2023/04/05 07:06:37;;;;;;;1.40;1.30;;;;;;;;;;5101696;28;20211;-78
2023/04/05 07:09:04;;;;;;;0.97;0.97;;;;;;;;;;5112076;28;20223;-78
2023/04/05 07:11:33;;;;;;;1.40;1.30;;;;;;;;;;5100972;28;20196;-78
2023/04/05 07:14:00;;;;;;;2.53;2.33;;;;;;;;;;5100236;28;20204;-78
2023/04/05 07:16:26;;;;;;;4.43;4.03;;;;;;;;;;5113548;28;20210;-78
2023/04/05 07:18:53;;;;;;;1.70;1.60;;;;;;;;;;5098208;28;20212;-78
2023/04/05 07:21:20;;;;;;;4.63;3.97;;;;;;;;;;5093212;28;20200;-78
2023/04/05 07:23:47;;;;;;;1.60;1.50;;;;;;;;;;5106729;28;20195;-79
2023/04/05 07:26:13;;;;;;;1.00;1.00;;;;;;;;;;5092816;28;20729;-78
2023/04/05 07:28:42;;;;;;;0.90;0.90;;;;;;;;;;5109077;28;20207;-78
2023/04/05 07:31:08;;;;;;;1.10;1.10;;;;;;;;;;5113179;28;20207;-78
2023/04/05 07:33:35;;;;;;;1.10;1.10;;;;;;;;;;5113044;28;20207;-79
2023/04/05 07:36:03;;;;;;;2.60;1.20;;;;;;;;;;5113234;28;20230;-78
2023/04/05 07:38:30;;;;;;;1.73;1.63;;;;;;;;;;5110072;28;20729;-78
2023/04/05 07:40:57;;;;;;;1.03;1.03;;;;;;;;;;5102518;28;20249;-78
2023/04/05 07:43:24;;;;;;;1.60;1.50;;;;;;;;;;5109704;28;20273;-78
2023/04/05 07:45:53;;;;;;;5.23;3.20;;;;;;;;;;5092823;28;20787;-78
2023/04/05 07:48:20;;;;;;;2.30;1.90;;;;;;;;;;5109929;28;20203;-78
2023/04/05 07:50:47;;;;;;;2.63;2.43;;;;;;;;;;5112691;28;20191;-79
2023/04/05 07:53:14;;;;;;;1.10;1.00;;;;;;;;;;5112927;28;20243;-79
2023/04/05 07:55:41;;;;;;;1.07;1.07;;;;;;;;;;5102302;28;20287;-78
2023/04/05 07:58:07;;;;;;;0.90;0.90;;;;;;;;;;5110247;28;20208;-79
2023/04/05 08:00:35;;;;;;;1.03;1.03;;;;;;;;;;5101857;28;20598;-79
2023/04/05 08:03:04;;;;;;;5.20;2.87;;;;;;;;;;5110562;28;20207;-78
2023/04/05 08:05:31;;;;;;;14.03;9.83;;;;;;;;;;5100687;28;20771;-79
2023/04/05 08:07:58;;;;;;;4.63;4.10;;;;;;;;;;5111695;28;20207;-78
2023/04/05 08:10:25;;;;;;;2.03;1.93;;;;;;;;;;5112647;28;20234;-79
2023/04/05 08:12:54;;;;;;;2.00;1.80;;;;;;;;;;5107085;28;20200;-80
2023/04/05 08:15:21;;;;;;;3.00;2.53;;;;;;;;;;5092660;28;20212;-79
2023/04/05 08:17:47;;;;;;;1.43;1.33;;;;;;;;;;5098143;28;20196;-79
2023/04/05 08:20:15;;;;;;;1.50;1.40;;;;;;;;;;5099924;28;20203;-79
2023/04/05 08:22:42;;;;;;;1.10;1.10;;;;;;;;;;5112496;28;20527;-78
2023/04/05 08:25:09;;;;;;;1.23;1.23;;;;;;;;;;5112099;28;20287;-79
2023/04/05 08:27:36;;;;;;;2.83;1.97;;;;;;;;;;5098412;28;20199;-79
2023/04/05 08:30:03;;;;;;;1.43;1.33;;;;;;;;;;5099035;28;20207;-79
2023/04/05 08:32:31;;;;;;;1.37;1.27;;;;;;;;;;5112553;28;20227;-79
2023/04/05 08:34:58;;;;;;;1.93;1.83;;;;;;;;;;5111985;28;20656;-79
2023/04/05 08:37:26;;;;;;;1.80;1.70;;;;;;;;;;5111920;28;20204;-79
2023/04/05 08:39:53;;;;;;;2.07;1.97;;;;;;;;;;5097985;28;20287;-79
2023/04/05 08:42:26;;;;;;;1.30;1.20;;;;;;;;;;5099524;28;20211;-79
2023/04/05 08:44:54;;;;;;;3.00;1.73;;;;;;;;;;5109965;28;20199;-79
2023/04/05 08:47:22;;;;;;;2.10;1.60;;;;;;;;;;5091889;28;20197;-79
2023/04/05 08:49:49;;;;;;;2.20;2.00;;;;;;;;;;5105471;28;20211;-79
2023/04/05 08:52:16;;;;;;;4.87;3.30;;;;;;;;;;5091861;28;20204;-79
2023/04/05 08:54:47;;;;;;;3.97;3.53;;;;;;;;;;5091988;28;20208;-79
2023/04/05 08:57:14;;;;;;;6.67;5.87;;;;;;;;;;5101059;28;20204;-79
2023/04/05 08:59:42;;;;;;;6.90;5.80;;;;;;;;;;5109272;28;20208;-78
2023/04/05 09:02:15;;;;;;;10.37;7.93;;;;;;;;;;5091550;28;20204;-79
2023/04/05 09:04:44;;;;;;;7.27;2.50;;;;;;;;;;5108231;28;20202;-79
2023/04/05 09:07:13;;;;;;;4.80;2.93;;;;;;;;;;5100332;28;20200;-79
2023/04/05 09:09:40;;;;;;;5.20;4.70;;;;;;;;;;5110325;28;20235;-79
2023/04/05 09:12:08;;;;;;;3.73;3.03;;;;;;;;;;5111695;28;20203;-79
2023/04/05 09:14:36;;;;;;;3.77;3.47;;;;;;;;;;5105316;28;20235;-79
2023/04/05 09:17:03;;;;;;;4.70;4.27;;;;;;;;;;5104605;28;20212;-80
2023/04/05 09:19:30;;;;;;;6.43;5.40;;;;;;;;;;5097820;28;20681;-79
2023/04/05 09:22:04;;;;;;;6.80;4.30;;;;;;;;;;5111537;28;20214;-78
2023/04/05 09:24:33;;;;;;;3.67;3.30;;;;;;;;;;5111268;28;20295;-79
2023/04/05 09:27:05;;;;;;;5.97;5.47;;;;;;;;;;5110968;28;20296;-78
2023/04/05 09:29:33;;;;;;;7.33;6.00;;;;;;;;;;5111424;28;20627;-78
2023/04/05 09:32:01;;;;;;;12.97;9.67;;;;;;;;;;5111372;28;20233;-78
2023/04/05 09:34:30;;;;;;;11.73;9.33;;;;;;;;;;5111326;28;20202;-79
2023/04/05 09:37:03;;;;;;;7.03;3.60;;;;;;;;;;5097743;28;20293;-79
2023/04/05 09:39:31;;;;;;;9.60;8.60;;;;;;;;;;5099588;28;20211;-79
2023/04/05 09:42:08;;;;;;;7.53;6.73;;;;;;;;;;5107906;28;20697;-79
2023/04/05 09:44:56;;;;;;;11.97;10.63;;;;;;;;;;5111594;28;20241;-79
2023/04/05 09:47:26;;;;;;;10.33;5.93;;;;;;;;;;5101646;28;20758;-78
2023/04/05 09:49:53;;;;;;;9.63;5.47;;;;;;;;;;5104719;28;20283;-79
2023/04/05 09:52:21;;;;;;;10.83;9.73;;;;;;;;;;5101413;28;20207;-79
2023/04/05 09:54:48;;;;;;;6.13;5.40;;;;;;;;;;5111073;28;20207;-78
2023/04/05 09:57:16;;;;;;;3.93;3.53;;;;;;;;;;5111106;28;20694;-79
2023/04/05 09:59:44;;;;;;;26.57;14.77;;;;;;;;;;5106261;28;20253;-79
2023/04/05 10:02:12;;;;;;;7.17;4.77;;;;;;;;;;5091142;28;20261;-78
2023/04/05 10:04:40;;;;;;;4.57;3.20;;;;;;;;;;5109600;28;20195;-79
2023/04/05 10:07:07;;;;;;;10.60;6.90;;;;;;;;;;5098576;28;20232;-78
2023/04/05 10:09:34;;;;;;;20.30;12.43;;;;;;;;;;5109732;28;20227;-78
2023/04/05 10:12:01;;;;;;;53.87;25.93;;;;;;;;;;5110817;28;20564;-78
2023/04/05 10:14:28;;;;;;;21.93;9.80;;;;;;;;;;5098494;28;20650;-79
2023/04/05 10:17:02;;;;;;;9.47;5.20;;;;;;;;;;5115170;28;20302;-78
2023/04/05 10:19:40;;;;;;;6.20;4.00;;;;;;;;;;5094364;28;20207;-78
2023/04/05 10:22:13;;;;;;;3.20;2.90;;;;;;;;;;5108321;28;20207;-79
2023/04/05 10:24:49;;;;;;;8.80;6.87;;;;;;;;;;5094379;28;20196;-79
2023/04/05 10:27:19;;;;;;;4.50;3.90;;;;;;;;;;5098809;28;20226;-79
2023/04/05 10:29:51;;;;;;;2.80;2.60;;;;;;;;;;5102445;28;20683;-79
2023/04/05 10:32:24;;;;;;;13.67;10.43;;;;;;;;;;5094608;28;20258;-78
2023/04/05 10:34:58;;;;;;;8.77;6.13;;;;;;;;;;5093988;28;20205;-79
2023/04/05 10:37:39;;;;;;;14.50;11.87;;;;;;;;;;5094105;28;20204;-79
2023/04/05 10:40:08;;;;;;;5.23;3.53;;;;;;;;;;5111115;28;20290;-78
2023/04/05 10:42:40;;;;;;;5.63;5.10;;;;;;;;;;5103895;28;20671;-79
2023/04/05 10:45:10;;;;;;;6.20;5.60;;;;;;;;;;5112114;28;20690;-79
2023/04/05 10:47:40;;;;;;;4.17;3.77;;;;;;;;;;5114147;28;20219;-78
2023/04/05 10:50:12;;;;;;;4.77;4.37;;;;;;;;;;5114161;28;20616;-79
2023/04/05 10:52:39;;;;;;;7.00;6.27;;;;;;;;;;5114296;28;20628;-80
2023/04/05 10:55:06;;;;;;;10.17;8.13;;;;;;;;;;5100954;28;20669;-79
2023/04/05 10:57:34;;;;;;;10.97;7.70;;;;;;;;;;5099790;28;20200;-78
2023/04/05 11:00:01;;;;;;;9.50;7.17;;;;;;;;;;5101263;28;20208;-78
2023/04/05 11:02:29;;;;;;;27.57;17.90;;;;;;;;;;5114310;28;20296;-78
2023/04/05 11:04:58;;;;;;;41.97;25.17;;;;;;;;;;5105991;28;20197;-79
2023/04/05 11:07:26;;;;;;;10.77;9.63;;;;;;;;;;5095519;28;20224;-78
2023/04/05 11:09:59;;;;;;;18.60;16.33;;;;;;;;;;5113817;28;20266;-79
2023/04/05 11:13:04;;;;;;;39.13;30.50;;;;;;;;;;5100412;28;20204;-79
2023/04/05 11:15:35;;;;;;;120.53;72.47;;;;;;;;;;5050747;28;20297;-79
2023/04/05 11:18:06;;;;;;;32.83;22.10;;;;;;;;;;5104387;28;20207;-79
2023/04/05 11:20:41;;;;;;;29.27;19.67;;;;;;;;;;5099833;28;20609;-79
2023/04/05 11:23:09;;;;;;;8.80;6.73;;;;;;;;;;5103739;28;20290;-79
2023/04/05 11:25:39;;;;;;;10.43;9.17;;;;;;;;;;5092483;28;20219;-78
2023/04/05 11:28:07;;;;;;;9.53;8.53;;;;;;;;;;5104203;28;20643;-79
2023/04/05 11:30:46;;;;;;;6.43;5.83;;;;;;;;;;5113431;28;20203;-80
2023/04/05 11:33:36;;;;;;;7.97;7.20;;;;;;;;;;5100369;28;20765;-79
2023/04/05 11:36:03;;;;;;;7.50;5.13;;;;;;;;;;5092949;28;20287;-78
2023/04/05 11:38:32;;;;;;;5.70;4.73;;;;;;;;;;5106353;28;20201;-78
2023/04/05 11:41:16;;;;;;;5.03;4.53;;;;;;;;;;5103453;28;20870;-79
2023/04/05 11:43:46;;;;;;;8.63;7.37;;;;;;;;;;5107222;28;20587;-78
2023/04/05 11:46:14;;;;;;;5.90;5.20;;;;;;;;;;5106056;28;20610;-82
2023/04/05 11:48:41;;;;;;;7.77;7.03;;;;;;;;;;5113371;28;20239;-79
2023/04/05 11:51:11;;;;;;;9.87;7.77;;;;;;;;;;5099193;28;20235;-79
2023/04/05 11:53:40;;;;;;;6.13;5.30;;;;;;;;;;5100833;28;20203;-78
2023/04/05 11:56:08;;;;;;;9.50;8.60;;;;;;;;;;5112841;28;20207;-79
2023/04/05 11:58:36;;;;;;;5.57;5.00;;;;;;;;;;5113035;28;20704;-78
2023/04/05 12:01:05;;;;;;;9.93;8.93;;;;;;;;;;5098822;28;20193;-79
2023/04/05 12:03:33;;;;;;;9.80;8.80;;;;;;;;;;5103782;28;20208;-79
2023/04/05 12:06:01;;;;;;;6.00;5.40;;;;;;;;;;5094765;28;20199;-79
2023/04/05 12:08:40;;;;;;;8.70;7.90;;;;;;;;;;5112336;28;20228;-78
2023/04/05 12:11:08;;;;;;;6.33;5.73;;;;;;;;;;5112868;28;20290;-78
2023/04/05 12:13:38;;;;;;;7.07;6.37;;;;;;;;;;5100829;28;20556;-78
2023/04/05 12:16:06;;;;;;;9.97;7.90;;;;;;;;;;5091943;28;20705;-79
2023/04/05 12:18:34;;;;;;;16.23;11.07;;;;;;;;;;5104364;28;20199;-78
2023/04/05 12:21:02;;;;;;;11.90;10.67;;;;;;;;;;5099127;28;20203;-79
2023/04/05 12:23:29;;;;;;;13.93;10.73;;;;;;;;;;5112403;28;20215;-78
2023/04/05 12:25:58;;;;;;;17.17;15.37;;;;;;;;;;5092972;28;20204;-79
2023/04/05 12:28:25;;;;;;;11.13;6.80;;;;;;;;;;5092328;28;20748;-79
2023/04/05 12:30:52;;;;;;;7.63;6.30;;;;;;;;;;5091772;28;20204;-78
2023/04/05 12:33:29;;;;;;;17.33;15.40;;;;;;;;;;5104873;28;20599;-78
2023/04/05 12:35:56;;;;;;;12.27;10.97;;;;;;;;;;5104362;28;20259;-79
2023/04/05 12:38:25;;;;;;;9.80;8.63;;;;;;;;;;5073067;28;20200;-78
2023/04/05 12:40:52;;;;;;;11.53;10.43;;;;;;;;;;5100519;28;20211;-78
2023/04/05 12:43:21;;;;;;;10.20;9.10;;;;;;;;;;5096470;28;20216;-78
2023/04/05 12:45:49;;;;;;;15.50;12.60;;;;;;;;;;5100794;28;20199;-78
2023/04/05 12:48:22;;;;;;;14.50;12.50;;;;;;;;;;5111888;28;20623;-78
2023/04/05 12:50:52;;;;;;;9.63;8.63;;;;;;;;;;5112476;28;20203;-79
2023/04/05 12:53:20;;;;;;;13.90;11.60;;;;;;;;;;5098396;28;20200;-79
2023/04/05 12:55:51;;;;;;;21.37;19.40;;;;;;;;;;5100355;28;20204;-78
2023/04/05 12:58:18;;;;;;;34.57;30.80;;;;;;;;;;5110462;28;20204;-79
2023/04/05 13:00:47;;;;;;;24.77;21.53;;;;;;;;;;5112035;28;20227;-78
2023/04/05 13:03:19;;;;;;;8.80;7.90;;;;;;;;;;5111792;28;20685;-78
2023/04/05 13:05:46;;;;;;;33.23;23.67;;;;;;;;;;5111392;28;20590;-79
2023/04/05 13:08:13;;;;;;;16.47;12.87;;;;;;;;;;5111470;28;20314;-79
2023/04/05 13:10:40;;;;;;;8.70;7.80;;;;;;;;;;5098413;28;20273;-79
2023/04/05 13:13:07;;;;;;;13.87;10.73;;;;;;;;;;5104235;28;20204;-78
2023/04/05 13:15:34;;;;;;;13.70;10.07;;;;;;;;;;5105549;28;20208;-81
2023/04/05 13:18:02;;;;;;;13.60;11.57;;;;;;;;;;5103824;28;20196;-78
2023/04/05 13:20:29;;;;;;;18.17;14.10;;;;;;;;;;5104631;28;20204;-78
2023/04/05 13:22:57;;;;;;;25.20;13.47;;;;;;;;;;5099652;28;20252;-79
2023/04/05 13:25:24;;;;;;;15.33;11.37;;;;;;;;;;5111301;28;20199;-78
2023/04/05 13:27:50;;;;;;;8.77;7.90;;;;;;;;;;5102646;28;20372;-78
2023/04/05 13:30:17;;;;;;;11.03;9.57;;;;;;;;;;5092925;28;20662;-78
2023/04/05 13:32:44;;;;;;;38.00;19.20;;;;;;;;;;5111672;28;20208;-79
2023/04/05 13:35:12;;;;;;;11.83;10.47;;;;;;;;;;5109195;28;20199;-79
2023/04/05 13:37:39;;;;;;;9.60;6.97;;;;;;;;;;5100610;28;20214;-79
2023/04/05 13:40:07;;;;;;;5.67;4.13;;;;;;;;;;5108492;28;21525;-79
2023/04/05 13:42:34;;;;;;;6.43;5.87;;;;;;;;;;5091303;28;20200;-79
2023/04/05 13:45:01;;;;;;;7.73;3.87;;;;;;;;;;5094741;28;20253;-79
2023/04/05 13:47:28;;;;;;;4.53;4.13;;;;;;;;;;5111269;28;20288;-80
2023/04/05 13:49:54;;;;;;;4.70;4.30;;;;;;;;;;5113195;28;20210;-80
2023/04/05 13:52:24;;;;;;;3.30;3.00;;;;;;;;;;5115418;28;20233;-79
2023/04/05 13:54:51;;;;;;;3.80;3.50;;;;;;;;;;5111626;28;20208;-79
2023/04/05 13:57:18;;;;;;;4.50;4.10;;;;;;;;;;5105834;28;20211;-80
2023/04/05 13:59:44;;;;;;;4.50;4.10;;;;;;;;;;5101569;28;20195;-79
2023/04/05 14:02:11;;;;;;;4.33;3.97;;;;;;;;;;5104033;28;20204;-79
2023/04/05 14:04:38;;;;;;;3.40;3.10;;;;;;;;;;5108462;28;20215;-79
2023/04/05 14:07:06;;;;;;;4.70;3.33;;;;;;;;;;5094755;28;20316;-80
2023/04/05 14:09:34;;;;;;;12.97;9.50;;;;;;;;;;5095412;28;20622;-79
2023/04/05 14:12:03;;;;;;;6.40;5.77;;;;;;;;;;5106863;28;20214;-79
2023/04/05 14:14:30;;;;;;;4.10;3.80;;;;;;;;;;5109073;28;20200;-79
2023/04/05 14:17:00;;;;;;;3.93;3.63;;;;;;;;;;5107558;28;20215;-88
2023/04/05 14:19:26;;;;;;;4.73;4.07;;;;;;;;;;5100985;28;20188;-88
2023/04/05 14:21:53;;;;;;;3.63;3.33;;;;;;;;;;5101263;28;20204;-79
2023/04/05 14:24:20;;;;;;;4.23;3.83;;;;;;;;;;5101583;28;20212;-78
2023/04/05 14:26:49;;;;;;;3.83;3.53;;;;;;;;;;5114561;28;20227;-79
2023/04/05 14:29:16;;;;;;;3.33;3.03;;;;;;;;;;5114701;28;20276;-79
2023/04/05 14:31:44;;;;;;;4.43;4.03;;;;;;;;;;5100473;28;20208;-79
2023/04/05 14:34:10;;;;;;;4.40;4.00;;;;;;;;;;5101932;28;20282;-79
2023/04/05 14:36:37;;;;;;;6.27;3.50;;;;;;;;;;5113882;28;20204;-79
2023/04/05 14:39:04;;;;;;;5.07;4.63;;;;;;;;;;5094254;28;20208;-79
2023/04/05 14:41:31;;;;;;;9.10;8.13;;;;;;;;;;5109274;28;20204;-79
2023/04/05 14:43:59;;;;;;;6.80;5.83;;;;;;;;;;5114145;28;20621;-79
2023/04/05 14:46:26;;;;;;;11.13;9.17;;;;;;;;;;5112810;28;20208;-79